createdAt,value
2018-12-27T00:02:05.001Z,23.27
2018-12-27T00:05:07.003Z,23.20
2018-12-27T00:08:08.961Z,25.83
2018-12-27T00:11:10.877Z,23.67
2018-12-27T00:14:12.862Z,22.40
2018-12-27T00:17:14.800Z,21.13
2018-12-27T00:20:16.729Z,24.17
2018-12-27T00:23:18.664Z,25.00
2018-12-27T00:26:20.683Z,22.77
2018-12-27T00:29:22.624Z,25.57
2018-12-27T00:32:24.601Z,21.13
2018-12-27T00:35:26.589Z,21.03
2018-12-27T00:38:28.813Z,19.00
2018-12-27T00:41:30.782Z,21.70
2018-12-27T00:44:32.740Z,22.87
2018-12-27T00:47:34.767Z,20.00
2018-12-27T00:50:36.755Z,24.47
2018-12-27T00:53:38.696Z,21.90
2018-12-27T00:56:40.646Z,24.77
2018-12-27T00:59:42.721Z,24.57
2018-12-27T01:02:44.644Z,21.27
2018-12-27T01:05:46.739Z,20.40
2018-12-27T01:08:48.702Z,25.03
2018-12-27T01:11:50.643Z,24.33
2018-12-27T01:14:52.636Z,23.57
2018-12-27T01:17:54.583Z,20.57
2018-12-27T01:20:56.544Z,23.07
2018-12-27T01:23:58.515Z,24.63
2018-12-27T01:27:00.517Z,22.20
2018-12-27T01:30:02.554Z,26.13
2018-12-27T01:33:05.781Z,24.13
2018-12-27T01:36:07.719Z,19.53
2018-12-27T01:39:09.870Z,19.50
2018-12-27T01:42:11.759Z,19.87
2018-12-27T01:45:13.690Z,18.70
2018-12-27T01:48:15.696Z,20.40
2018-12-27T01:51:17.603Z,19.27
2018-12-27T01:54:19.534Z,18.07
2018-12-27T01:57:21.459Z,17.67
2018-12-27T02:00:23.487Z,18.03
2018-12-27T02:03:26.634Z,16.90
2018-12-27T02:06:28.848Z,16.50
2018-12-27T02:09:30.813Z,17.50
2018-12-27T02:12:32.751Z,22.47
2018-12-27T02:15:34.703Z,18.67
2018-12-27T02:18:36.723Z,15.47
2018-12-27T02:21:38.636Z,17.10
2018-12-27T02:24:40.584Z,18.03
2018-12-27T02:27:42.565Z,16.20
2018-12-27T02:30:44.493Z,16.50
2018-12-27T02:33:46.405Z,18.03
2018-12-27T02:36:48.350Z,14.00
2018-12-27T02:39:50.540Z,14.13
2018-12-27T02:42:52.839Z,16.40
2018-12-27T02:45:54.789Z,15.73
2018-12-27T02:48:56.869Z,16.00
2018-12-27T02:51:58.772Z,16.00
2018-12-27T02:55:00.842Z,18.33
2018-12-27T02:58:02.791Z,18.93
2018-12-27T03:01:04.931Z,16.63
2018-12-27T03:04:07.839Z,17.50
2018-12-27T03:07:09.879Z,14.40
2018-12-27T03:10:11.866Z,15.97
2018-12-27T03:13:13.859Z,18.80
2018-12-27T03:16:15.805Z,15.60
2018-12-27T03:19:17.919Z,17.43
2018-12-27T03:22:19.990Z,15.23
2018-12-27T03:25:21.923Z,15.03
2018-12-27T03:28:23.900Z,18.80
2018-12-27T03:31:25.820Z,14.97
2018-12-27T03:34:27.786Z,14.57
2018-12-27T03:37:30.896Z,16.10
2018-12-27T03:40:33.240Z,16.77
2018-12-27T03:43:35.243Z,14.27
2018-12-27T03:46:37.196Z,19.07
2018-12-27T03:49:39.216Z,14.93
2018-12-27T03:52:41.109Z,18.93
2018-12-27T03:55:43.162Z,17.73
2018-12-27T03:58:45.200Z,16.60
2018-12-27T04:01:47.222Z,17.47
2018-12-27T04:04:50.282Z,15.17
2018-12-27T04:07:52.338Z,16.67
2018-12-27T04:10:54.284Z,14.00
2018-12-27T04:13:56.275Z,15.63
2018-12-27T04:16:58.192Z,16.53
2018-12-27T04:20:00.261Z,13.77
2018-12-27T04:23:02.172Z,16.50
2018-12-27T04:26:04.332Z,15.93
2018-12-27T04:29:06.365Z,15.53
2018-12-27T04:32:08.571Z,16.33
2018-12-27T04:35:10.968Z,12.97
2018-12-27T04:38:13.006Z,12.27
2018-12-27T04:41:14.977Z,14.57
2018-12-27T04:44:17.155Z,12.47
2018-12-27T04:47:19.246Z,12.37
2018-12-27T04:50:21.222Z,11.43
2018-12-27T04:53:23.171Z,10.13
2018-12-27T04:56:25.143Z,9.67
2018-12-27T04:59:27.112Z,9.87
2018-12-27T05:02:29.159Z,15.47
2018-12-27T05:05:31.118Z,9.87
2018-12-27T05:08:33.212Z,11.33
2018-12-27T05:11:35.210Z,9.43
2018-12-27T05:14:37.182Z,9.77
2018-12-27T05:17:39.151Z,12.43
2018-12-27T05:20:41.133Z,10.07
2018-12-27T05:23:44.215Z,12.83
2018-12-27T05:26:46.133Z,10.37
2018-12-27T05:29:48.082Z,9.83
2018-12-27T05:32:50.034Z,9.63
2018-12-27T05:35:52.981Z,9.37
2018-12-27T05:38:54.966Z,8.33
2018-12-27T05:41:56.890Z,9.20
2018-12-27T05:44:58.945Z,8.20
2018-12-27T05:48:00.886Z,9.70
2018-12-27T05:51:02.919Z,14.07
2018-12-27T05:54:04.882Z,9.20
2018-12-27T05:57:06.823Z,8.70
2018-12-27T06:00:08.792Z,7.23
2018-12-27T06:03:10.846Z,8.43
2018-12-27T06:06:12.790Z,9.17
2018-12-27T06:09:14.940Z,7.17
2018-12-27T06:12:16.931Z,6.10
2018-12-27T06:15:18.955Z,6.63
2018-12-27T06:18:20.925Z,5.93
2018-12-27T06:21:22.958Z,6.73
2018-12-27T06:24:25.546Z,7.33
2018-12-27T06:27:27.539Z,7.77
2018-12-27T06:30:29.483Z,7.13
2018-12-27T06:33:31.441Z,5.83
2018-12-27T06:36:33.391Z,6.17
2018-12-27T06:39:35.486Z,6.83
2018-12-27T06:42:37.434Z,6.70
2018-12-27T06:45:39.513Z,6.00
2018-12-27T06:48:41.459Z,6.90
2018-12-27T06:51:43.393Z,5.83
2018-12-27T06:54:45.346Z,5.77
2018-12-27T06:57:47.351Z,6.07
2018-12-27T07:00:49.296Z,6.37
2018-12-27T07:03:51.337Z,5.20
2018-12-27T07:06:53.286Z,6.30
2018-12-27T07:09:55.379Z,7.90
2018-12-27T07:12:57.396Z,5.37
2018-12-27T07:15:59.499Z,5.83
2018-12-27T07:19:01.763Z,9.07
2018-12-27T07:22:03.809Z,7.03
2018-12-27T07:25:05.935Z,9.90
2018-12-27T07:28:08.130Z,5.97
2018-12-27T07:31:10.197Z,7.33
2018-12-27T07:34:12.520Z,6.43
2018-12-27T07:37:14.587Z,11.77
2018-12-27T07:40:16.739Z,8.77
2018-12-27T07:43:18.692Z,9.67
2018-12-27T07:46:20.784Z,17.03
2018-12-27T07:49:22.769Z,7.40
2018-12-27T07:52:24.817Z,33.03
2018-12-27T07:55:26.827Z,23.70
2018-12-27T07:58:28.876Z,20.40
2018-12-27T08:01:31.236Z,21.20
2018-12-27T08:04:33.246Z,22.83
2018-12-27T08:07:35.248Z,29.40
2018-12-27T08:10:37.220Z,21.27
2018-12-27T08:13:39.303Z,23.43
2018-12-27T08:16:41.352Z,11.63
2018-12-27T08:19:43.318Z,7.27
2018-12-27T08:22:45.257Z,6.93
2018-12-27T08:25:47.312Z,6.43
2018-12-27T08:28:49.265Z,5.30
2018-12-27T08:31:51.188Z,6.13
2018-12-27T08:34:53.220Z,5.90
2018-12-27T08:37:55.077Z,5.87
2018-12-27T08:40:57.138Z,6.33
2018-12-27T08:43:59.212Z,6.37
2018-12-27T08:47:01.309Z,7.67
2018-12-27T08:50:05.611Z,8.80
2018-12-27T08:53:07.643Z,16.57
2018-12-27T08:56:09.635Z,9.00
2018-12-27T08:59:11.665Z,7.63
2018-12-27T09:02:13.781Z,8.63
2018-12-27T09:05:19.074Z,7.80
2018-12-27T09:08:19.633Z,5.57
2018-12-27T09:11:21.489Z,7.77
2018-12-27T09:14:24.592Z,5.90
2018-12-27T09:17:27.645Z,7.43
2018-12-27T09:20:29.643Z,6.90
2018-12-27T09:23:31.701Z,6.97
2018-12-27T09:26:33.762Z,6.80
2018-12-27T09:29:35.812Z,6.37
2018-12-27T09:32:37.850Z,8.47
2018-12-27T09:35:39.810Z,7.20
2018-12-27T09:38:41.816Z,7.50
2018-12-27T09:41:43.705Z,6.90
2018-12-27T09:44:45.727Z,5.57
2018-12-27T09:47:47.686Z,7.50
2018-12-27T09:50:49.653Z,6.07
2018-12-27T09:53:52.091Z,5.50
2018-12-27T09:56:54.069Z,6.07
2018-12-27T09:59:56.062Z,5.40
2018-12-27T10:02:58.032Z,6.03
2018-12-27T10:06:00.222Z,10.03
2018-12-27T10:13:31.905Z,10.27
2018-12-27T10:16:34.283Z,8.10
2018-12-27T10:19:36.508Z,10.17
2018-12-27T10:22:38.582Z,8.37
2018-12-27T10:25:40.522Z,7.80
2018-12-27T10:28:42.759Z,6.00
2018-12-27T10:31:44.811Z,11.47
2018-12-27T10:34:46.779Z,7.33
2018-12-27T10:37:48.771Z,5.87
2018-12-27T10:40:50.812Z,7.33
2018-12-27T10:43:52.806Z,6.27
2018-12-27T10:46:54.780Z,8.17
2018-12-27T10:49:56.751Z,5.40
2018-12-27T10:52:58.737Z,6.00
2018-12-27T10:56:00.624Z,6.87
2018-12-27T10:59:02.633Z,39.47
2018-12-27T11:02:05.312Z,90.03
2018-12-27T11:05:07.369Z,75.53
2018-12-27T11:08:09.341Z,36.10
2018-12-27T11:11:11.263Z,66.10
2018-12-27T11:14:13.203Z,52.57
2018-12-27T11:17:15.225Z,10.37
2018-12-27T11:20:17.628Z,9.97
2018-12-27T11:23:19.671Z,7.03
2018-12-27T11:26:21.721Z,6.37
2018-12-27T11:29:25.317Z,7.83
2018-12-27T11:32:27.430Z,6.97
2018-12-27T11:35:29.425Z,8.63
2018-12-27T11:38:31.477Z,6.73
2018-12-27T11:41:33.525Z,11.43
2018-12-27T11:44:35.452Z,7.70
2018-12-27T11:47:37.464Z,8.67
2018-12-27T11:50:39.390Z,7.77
2018-12-27T11:53:41.321Z,7.50
2018-12-27T11:56:43.297Z,9.73
2018-12-27T11:59:45.411Z,8.13
2018-12-27T12:02:47.340Z,8.27
2018-12-27T12:05:49.303Z,6.23
2018-12-27T12:08:51.247Z,6.17
2018-12-27T12:11:53.115Z,6.80
2018-12-27T12:14:55.662Z,9.07
2018-12-27T12:17:57.524Z,8.70
2018-12-27T12:21:00.209Z,6.40
2018-12-27T12:24:02.230Z,8.93
2018-12-27T12:27:06.219Z,6.97
2018-12-27T12:30:09.488Z,10.63
2018-12-27T12:33:11.412Z,9.77
2018-12-27T12:36:13.329Z,10.20
2018-12-27T12:39:15.255Z,11.67
2018-12-27T12:42:17.449Z,48.47
2018-12-27T12:45:20.379Z,21.70
2018-12-27T12:48:22.445Z,15.43
2018-12-27T12:51:24.390Z,18.53
2018-12-27T12:54:28.244Z,11.90
2018-12-27T12:57:31.020Z,12.00
2018-12-27T13:00:35.319Z,10.70
2018-12-27T13:03:37.383Z,8.83
2018-12-27T13:06:39.350Z,10.20
2018-12-27T13:09:41.460Z,10.03
2018-12-27T13:12:43.391Z,10.90
2018-12-27T13:15:45.643Z,7.47
2018-12-27T13:18:47.851Z,7.80
2018-12-27T13:21:49.899Z,8.40
2018-12-27T13:24:51.821Z,8.43
2018-12-27T13:27:53.759Z,9.43
2018-12-27T13:30:55.711Z,6.97
2018-12-27T13:33:58.723Z,7.50
2018-12-27T13:37:00.708Z,7.90
2018-12-27T13:40:02.792Z,9.73
2018-12-27T13:43:05.035Z,10.23
2018-12-27T13:46:07.166Z,9.70
2018-12-27T13:49:09.288Z,10.20
2018-12-27T13:52:11.308Z,11.93
2018-12-27T13:55:13.340Z,10.50
2018-12-27T13:58:15.272Z,14.70
2018-12-27T14:01:17.253Z,11.37
2018-12-27T14:04:19.253Z,13.00
2018-12-27T14:07:21.204Z,11.47
2018-12-27T14:10:23.276Z,10.30
2018-12-27T14:13:25.209Z,10.20
2018-12-27T14:16:27.237Z,10.07
2018-12-27T14:19:29.257Z,11.70
2018-12-27T14:22:31.285Z,9.23
2018-12-27T14:25:33.291Z,10.13
2018-12-27T14:28:35.210Z,14.50
2018-12-27T14:31:37.266Z,9.77
2018-12-27T14:34:39.236Z,8.80
2018-12-27T14:37:41.210Z,8.47
2018-12-27T14:40:43.158Z,8.43
2018-12-27T14:43:45.140Z,9.73
2018-12-27T14:46:47.108Z,7.03
2018-12-27T14:49:49.114Z,7.70
2018-12-27T14:52:51.167Z,9.13
2018-12-27T14:55:53.190Z,11.07
2018-12-27T14:58:55.127Z,9.83
2018-12-27T15:01:57.089Z,16.43
2018-12-27T15:04:59.152Z,10.30
2018-12-27T15:08:01.633Z,11.80
2018-12-27T15:11:03.693Z,12.10
2018-12-27T15:14:05.796Z,9.03
2018-12-27T15:17:07.771Z,9.77
2018-12-27T15:20:10.016Z,26.57
2018-12-27T15:23:11.953Z,22.37
2018-12-27T15:26:13.977Z,24.03
2018-12-27T15:29:16.100Z,21.73
2018-12-27T15:32:18.360Z,29.33
2018-12-27T15:35:20.383Z,25.73
2018-12-27T15:38:22.511Z,34.90
2018-12-27T15:41:24.492Z,21.13
2018-12-27T15:44:26.535Z,16.53
2018-12-27T15:47:28.560Z,18.60
2018-12-27T15:50:30.537Z,14.67
2018-12-27T15:53:32.471Z,11.93
2018-12-27T15:56:34.678Z,13.73
2018-12-27T15:59:36.729Z,17.60
2018-12-27T16:02:38.838Z,16.27
2018-12-27T16:05:40.768Z,11.60
2018-12-27T16:08:42.795Z,15.63
2018-12-27T16:11:44.845Z,13.43
2018-12-27T16:14:46.958Z,22.37
2018-12-27T16:17:49.051Z,13.43
2018-12-27T16:20:51.109Z,14.10
2018-12-27T16:23:53.088Z,12.90
2018-12-27T16:26:55.040Z,17.07
2018-12-27T16:29:56.988Z,12.50
2018-12-27T16:32:59.028Z,15.10
2018-12-27T16:36:01.221Z,13.40
2018-12-27T16:39:05.228Z,15.87
2018-12-27T16:42:07.186Z,13.37
2018-12-27T16:45:09.138Z,13.10
2018-12-27T16:48:11.061Z,13.10
2018-12-27T16:51:13.076Z,11.23
2018-12-27T16:54:15.083Z,14.73
2018-12-27T16:57:19.790Z,17.17
2018-12-27T17:00:20.986Z,15.33
2018-12-27T17:03:22.941Z,12.97
2018-12-27T17:06:26.094Z,15.27
2018-12-27T17:09:28.272Z,14.73
2018-12-27T17:12:30.247Z,17.93
2018-12-27T17:15:32.294Z,15.80
2018-12-27T17:18:34.725Z,18.63
2018-12-27T17:21:36.680Z,18.90
2018-12-27T17:24:38.748Z,23.40
2018-12-27T17:27:40.616Z,19.27
2018-12-27T17:30:42.699Z,17.13
2018-12-27T17:33:44.697Z,17.83
2018-12-27T17:36:46.831Z,15.13
2018-12-27T17:39:49.043Z,18.13
2018-12-27T17:42:51.017Z,15.70
2018-12-27T17:45:52.992Z,19.43
2018-12-27T17:48:55.086Z,13.83
2018-12-27T17:51:57.173Z,15.63
2018-12-27T17:54:59.181Z,18.13
2018-12-27T17:58:01.221Z,19.03
2018-12-27T18:01:03.443Z,17.07
2018-12-27T18:04:05.482Z,17.57
2018-12-27T18:07:07.426Z,16.00
2018-12-27T18:10:09.413Z,15.10
2018-12-27T18:13:11.358Z,20.50
2018-12-27T18:16:13.422Z,16.57
2018-12-27T18:19:15.489Z,20.07
2018-12-27T18:22:17.494Z,14.87
2018-12-27T18:25:19.637Z,15.63
2018-12-27T18:28:21.749Z,16.10
2018-12-27T18:31:23.730Z,19.73
2018-12-27T18:34:25.729Z,13.87
2018-12-27T18:37:27.831Z,13.83
2018-12-27T18:40:29.873Z,15.37
2018-12-27T18:43:32.398Z,14.67
2018-12-27T18:46:34.463Z,13.33
2018-12-27T18:49:36.438Z,22.30
2018-12-27T18:52:38.391Z,14.43
2018-12-27T18:55:40.789Z,13.93
2018-12-27T18:58:43.937Z,14.57
2018-12-27T19:01:46.027Z,12.57
2018-12-27T19:04:49.850Z,13.03
2018-12-27T19:07:52.030Z,21.13
2018-12-27T19:11:31.519Z,11.53
2018-12-27T19:14:33.653Z,13.57
2018-12-27T19:17:38.964Z,13.50
2018-12-27T19:20:43.013Z,13.73
2018-12-27T19:23:45.145Z,11.33
2018-12-27T19:26:48.663Z,12.00
2018-12-27T19:29:51.046Z,11.70
2018-12-27T19:32:53.111Z,12.63
2018-12-27T19:35:55.185Z,12.00
2018-12-27T19:38:57.229Z,11.50
2018-12-27T19:41:59.293Z,10.40
2018-12-27T19:45:02.600Z,9.47
2018-12-27T19:48:06.401Z,12.67
2018-12-27T19:51:08.432Z,11.70
2018-12-27T19:54:10.404Z,13.60
2018-12-27T19:57:14.194Z,12.63
2018-12-27T20:00:18.000Z,16.47
2018-12-27T20:03:21.964Z,13.63
2018-12-27T20:06:24.175Z,14.37
2018-12-27T20:09:27.618Z,11.43
2018-12-27T20:12:29.587Z,11.53
2018-12-27T20:15:32.695Z,15.00
2018-12-27T20:18:35.000Z,12.13
2018-12-27T20:21:37.443Z,13.27
2018-12-27T20:24:39.888Z,11.77
2018-12-27T20:27:41.850Z,14.37
2018-12-27T20:30:43.773Z,13.77
2018-12-27T20:33:46.069Z,12.60
2018-12-27T20:36:49.170Z,14.10
2018-12-27T20:39:52.813Z,11.47
2018-12-27T20:42:54.752Z,12.80
2018-12-27T20:45:56.802Z,13.97
2018-12-27T20:48:59.947Z,10.57
2018-12-27T20:52:04.406Z,16.00
2018-12-27T20:55:06.851Z,12.87
2018-12-27T20:58:10.242Z,17.17
2018-12-27T21:01:12.149Z,14.87
2018-12-27T21:04:14.139Z,22.40
2018-12-27T21:07:16.856Z,15.23
2018-12-27T21:10:18.854Z,14.73
2018-12-27T21:13:23.163Z,12.83
2018-12-27T21:16:26.500Z,18.60
2018-12-27T21:19:28.503Z,11.00
2018-12-27T21:22:32.711Z,16.10
2018-12-27T21:25:36.795Z,15.33
2018-12-27T21:28:38.787Z,13.17
2018-12-27T21:31:41.871Z,19.27
2018-12-27T21:34:43.853Z,14.03
2018-12-27T21:37:45.748Z,15.73
2018-12-27T21:40:47.735Z,14.80
2018-12-27T21:43:49.958Z,17.20
2018-12-27T21:46:51.953Z,14.47
2018-12-27T21:49:53.908Z,15.83
2018-12-27T21:52:55.918Z,14.40
2018-12-27T21:55:57.938Z,14.10
2018-12-27T21:58:59.958Z,14.90
2018-12-27T22:02:01.915Z,18.03
2018-12-27T22:05:04.011Z,17.10
2018-12-27T22:08:06.595Z,17.83
2018-12-27T22:11:09.032Z,13.33
2018-12-27T22:14:10.991Z,13.47
2018-12-27T22:17:12.958Z,13.77
2018-12-27T22:20:15.067Z,13.67
2018-12-27T22:23:16.999Z,15.13
2018-12-27T22:26:19.121Z,15.27
2018-12-27T22:29:21.060Z,17.60
2018-12-27T22:32:23.083Z,17.43
2018-12-27T22:35:25.050Z,19.73
2018-12-27T22:38:27.078Z,19.93
2018-12-27T22:41:29.002Z,14.70
2018-12-27T22:44:30.942Z,17.90
2018-12-27T22:47:32.951Z,19.00
2018-12-27T22:50:34.905Z,15.70
2018-12-27T22:53:36.875Z,17.57
2018-12-27T22:56:38.853Z,15.40
2018-12-27T22:59:40.847Z,17.80
2018-12-27T23:02:42.757Z,14.73
2018-12-27T23:05:44.763Z,18.30
2018-12-27T23:08:46.766Z,12.90
2018-12-27T23:11:49.314Z,15.77
2018-12-27T23:14:51.303Z,13.97
2018-12-27T23:17:53.208Z,17.47
2018-12-27T23:20:55.175Z,20.10
2018-12-27T23:23:57.822Z,16.63
2018-12-27T23:27:00.732Z,17.33
2018-12-27T23:30:04.611Z,19.80
2018-12-27T23:33:06.624Z,17.03
2018-12-27T23:36:08.612Z,13.07
2018-12-27T23:39:10.806Z,21.70
2018-12-27T23:42:12.927Z,16.93
2018-12-27T23:45:15.195Z,16.67
2018-12-27T23:48:17.259Z,24.43
2018-12-27T23:51:19.258Z,17.20
2018-12-27T23:54:21.261Z,18.27
2018-12-27T23:57:23.219Z,22.87
